sensor_id;sensor_type;location;lat;lon;timestamp;pressure;altitude;pressure_sealevel;temperature;humidity
59729;BME280;45588;51.598;5.618;2022-10-18T00:00:17;102426.63;;;13.47;100.00
59729;BME280;45588;51.598;5.618;2022-10-18T00:02:42;102423.25;;;13.50;100.00
59729;BME280;45588;51.598;5.618;2022-10-18T00:05:07;102420.78;;;13.54;100.00
59729;BME280;45588;51.598;5.618;2022-10-18T00:07:33;102422.72;;;13.60;100.00
59729;BME280;45588;51.598;5.618;2022-10-18T00:09:58;102423.69;;;13.62;100.00
59729;BME280;45588;51.598;5.618;2022-10-18T00:12:23;102424.53;;;13.61;100.00
59729;BME280;45588;51.598;5.618;2022-10-18T00:14:49;102419.13;;;13.56;100.00
59729;BME280;45588;51.598;5.618;2022-10-18T00:17:15;102420.72;;;13.53;100.00
59729;BME280;45588;51.598;5.618;2022-10-18T00:19:40;102404.88;;;13.48;100.00
59729;BME280;45588;51.598;5.618;2022-10-18T00:22:05;102410.16;;;13.50;100.00
59729;BME280;45588;51.598;5.618;2022-10-18T00:24:31;102413.66;;;13.50;100.00
59729;BME280;45588;51.598;5.618;2022-10-18T00:26:56;102406.56;;;13.48;100.00
59729;BME280;45588;51.598;5.618;2022-10-18T00:29:21;102402.47;;;13.54;100.00
59729;BME280;45588;51.598;5.618;2022-10-18T00:31:47;102412.94;;;13.54;100.00
59729;BME280;45588;51.598;5.618;2022-10-18T00:34:14;102411.09;;;13.52;100.00
59729;BME280;45588;51.598;5.618;2022-10-18T00:36:40;102419.81;;;13.51;100.00
59729;BME280;45588;51.598;5.618;2022-10-18T00:39:07;102411.78;;;13.46;100.00
59729;BME280;45588;51.598;5.618;2022-10-18T00:41:35;102419.84;;;13.52;100.00
59729;BME280;45588;51.598;5.618;2022-10-18T00:46:37;102427.66;;;13.51;100.00
59729;BME280;45588;51.598;5.618;2022-10-18T00:49:11;102414.44;;;13.48;100.00
59729;BME280;45588;51.598;5.618;2022-10-18T00:51:50;102410.03;;;13.47;100.00
59729;BME280;45588;51.598;5.618;2022-10-18T00:54:18;102420.50;;;13.47;100.00
59729;BME280;45588;51.598;5.618;2022-10-18T00:56:44;102416.34;;;13.52;100.00
59729;BME280;45588;51.598;5.618;2022-10-18T00:59:11;102421.56;;;13.52;100.00
59729;BME280;45588;51.598;5.618;2022-10-18T01:01:37;102422.34;;;13.49;100.00
59729;BME280;45588;51.598;5.618;2022-10-18T01:04:03;102413.66;;;13.50;100.00
59729;BME280;45588;51.598;5.618;2022-10-18T01:06:29;102420.84;;;13.56;100.00
59729;BME280;45588;51.598;5.618;2022-10-18T01:09:07;102422.72;;;13.60;100.00
59729;BME280;45588;51.598;5.618;2022-10-18T01:11:49;102424.47;;;13.59;100.00
59729;BME280;45588;51.598;5.618;2022-10-18T01:20:36;102438.50;;;13.61;100.00
59729;BME280;45588;51.598;5.618;2022-10-18T01:29:01;102438.44;;;13.60;100.00
59729;BME280;45588;51.598;5.618;2022-10-18T01:31:39;102437.44;;;13.56;100.00
59729;BME280;45588;51.598;5.618;2022-10-18T01:34:09;102429.34;;;13.50;100.00
59729;BME280;45588;51.598;5.618;2022-10-18T01:36:39;102431.09;;;13.50;100.00
59729;BME280;45588;51.598;5.618;2022-10-18T01:39:11;102436.31;;;13.50;100.00
59729;BME280;45588;51.598;5.618;2022-10-18T01:41:40;102432.75;;;13.48;100.00
59729;BME280;45588;51.598;5.618;2022-10-18T01:44:11;102440.69;;;13.49;100.00
59729;BME280;45588;51.598;5.618;2022-10-18T01:46:38;102428.25;;;13.44;100.00
59729;BME280;45588;51.598;5.618;2022-10-18T01:49:05;102427.47;;;13.46;100.00
59729;BME280;45588;51.598;5.618;2022-10-18T01:51:32;102424.69;;;13.41;100.00
59729;BME280;45588;51.598;5.618;2022-10-18T01:53:57;102431.75;;;13.44;100.00
59729;BME280;45588;51.598;5.618;2022-10-18T01:59:32;102437.28;;;13.52;100.00
59729;BME280;45588;51.598;5.618;2022-10-18T02:08:13;102436.56;;;13.56;100.00
59729;BME280;45588;51.598;5.618;2022-10-18T02:10:49;102443.34;;;13.51;100.00
59729;BME280;45588;51.598;5.618;2022-10-18T02:13:18;102433.78;;;13.51;100.00
59729;BME280;45588;51.598;5.618;2022-10-18T02:15:46;102431.19;;;13.53;100.00
59729;BME280;45588;51.598;5.618;2022-10-18T02:18:18;102430.09;;;13.46;100.00
59729;BME280;45588;51.598;5.618;2022-10-18T02:20:47;102428.19;;;13.42;100.00
59729;BME280;45588;51.598;5.618;2022-10-18T02:23:13;102427.31;;;13.41;100.00
59729;BME280;45588;51.598;5.618;2022-10-18T02:25:40;102414.13;;;13.38;100.00
59729;BME280;45588;51.598;5.618;2022-10-18T02:28:06;102430.75;;;13.40;100.00
59729;BME280;45588;51.598;5.618;2022-10-18T02:30:41;102431.66;;;13.41;100.00
59729;BME280;45588;51.598;5.618;2022-10-18T02:33:16;102430.75;;;13.40;100.00
59729;BME280;45588;51.598;5.618;2022-10-18T02:35:49;102435.06;;;13.38;100.00
59729;BME280;45588;51.598;5.618;2022-10-18T02:38:18;102436.88;;;13.41;100.00
59729;BME280;45588;51.598;5.618;2022-10-18T02:40:44;102435.09;;;13.40;100.00
59729;BME280;45588;51.598;5.618;2022-10-18T02:43:09;102439.63;;;13.44;100.00
59729;BME280;45588;51.598;5.618;2022-10-18T02:45:35;102441.16;;;13.39;100.00
59729;BME280;45588;51.598;5.618;2022-10-18T02:48:00;102434.19;;;13.39;100.00
59729;BME280;45588;51.598;5.618;2022-10-18T02:50:25;102439.44;;;13.39;100.00
59729;BME280;45588;51.598;5.618;2022-10-18T02:52:51;102436.75;;;13.38;100.00
59729;BME280;45588;51.598;5.618;2022-10-18T02:55:16;102442.84;;;13.37;100.00
59729;BME280;45588;51.598;5.618;2022-10-18T02:57:41;102434.28;;;13.41;100.00
59729;BME280;45588;51.598;5.618;2022-10-18T03:00:07;102442.91;;;13.38;100.00
59729;BME280;45588;51.598;5.618;2022-10-18T03:02:33;102451.69;;;13.40;100.00
59729;BME280;45588;51.598;5.618;2022-10-18T03:04:58;102443.81;;;13.40;100.00
59729;BME280;45588;51.598;5.618;2022-10-18T03:07:23;102435.75;;;13.34;100.00
59729;BME280;45588;51.598;5.618;2022-10-18T03:09:49;102440.22;;;13.37;100.00
59729;BME280;45588;51.598;5.618;2022-10-18T03:12:15;102453.38;;;13.38;100.00
59729;BME280;45588;51.598;5.618;2022-10-18T03:14:40;102451.69;;;13.40;100.00
59729;BME280;45588;51.598;5.618;2022-10-18T03:17:05;102451.63;;;13.39;100.00
59729;BME280;45588;51.598;5.618;2022-10-18T03:19:31;102439.50;;;13.41;100.00
59729;BME280;45588;51.598;5.618;2022-10-18T03:21:56;102451.56;;;13.37;100.00
59729;BME280;45588;51.598;5.618;2022-10-18T03:24:21;102437.53;;;13.35;100.00
59729;BME280;45588;51.598;5.618;2022-10-18T03:26:46;102442.16;;;13.42;100.00
59729;BME280;45588;51.598;5.618;2022-10-18T03:29:12;102442.91;;;13.38;100.00
59729;BME280;45588;51.598;5.618;2022-10-18T03:31:37;102450.78;;;13.40;100.00
59729;BME280;45588;51.598;5.618;2022-10-18T03:34:03;102438.44;;;13.36;100.00
59729;BME280;45588;51.598;5.618;2022-10-18T03:36:28;102442.72;;;13.34;100.00
59729;BME280;45588;51.598;5.618;2022-10-18T03:38:53;102445.16;;;13.29;100.00
59729;BME280;45588;51.598;5.618;2022-10-18T03:41:18;102444.22;;;13.27;100.00
59729;BME280;45588;51.598;5.618;2022-10-18T03:43:45;102463.84;;;13.38;100.00
59729;BME280;45588;51.598;5.618;2022-10-18T03:46:10;102461.22;;;13.38;100.00
59729;BME280;45588;51.598;5.618;2022-10-18T03:48:35;102453.31;;;13.37;100.00
59729;BME280;45588;51.598;5.618;2022-10-18T03:51:01;102445.53;;;13.38;100.00
59729;BME280;45588;51.598;5.618;2022-10-18T03:53:26;102457.94;;;13.44;100.00
59729;BME280;45588;51.598;5.618;2022-10-18T03:55:55;102444.84;;;13.44;100.00
59729;BME280;45588;51.598;5.618;2022-10-18T03:58:21;102443.81;;;13.40;100.00
59729;BME280;45588;51.598;5.618;2022-10-18T04:00:53;102437.84;;;13.43;100.00
59729;BME280;45588;51.598;5.618;2022-10-18T04:03:20;102430.00;;;13.43;100.00
59729;BME280;45588;51.598;5.618;2022-10-18T04:05:46;102428.19;;;13.42;100.00
59729;BME280;45588;51.598;5.618;2022-10-18T04:08:12;102430.31;;;13.52;100.00
59729;BME280;45588;51.598;5.618;2022-10-18T04:10:38;102430.38;;;13.54;100.00
59729;BME280;45588;51.598;5.618;2022-10-18T04:13:04;102437.09;;;13.47;100.00
59729;BME280;45588;51.598;5.618;2022-10-18T04:15:29;102430.31;;;13.52;100.00
59729;BME280;45588;51.598;5.618;2022-10-18T04:17:55;102435.78;;;13.58;100.00
59729;BME280;45588;51.598;5.618;2022-10-18T04:20:21;102438.34;;;13.57;100.00
59729;BME280;45588;51.598;5.618;2022-10-18T04:22:47;102431.09;;;13.50;100.00
59729;BME280;45588;51.598;5.618;2022-10-18T04:25:13;102439.03;;;13.53;100.00
59729;BME280;45588;51.598;5.618;2022-10-18T04:27:38;102440.78;;;13.52;100.00
59729;BME280;45588;51.598;5.618;2022-10-18T04:30:04;102432.81;;;13.49;100.00
59729;BME280;45588;51.598;5.618;2022-10-18T04:32:29;102445.03;;;13.49;100.00
59729;BME280;45588;51.598;5.618;2022-10-18T04:34:55;102441.81;;;13.56;100.00
59729;BME280;45588;51.598;5.618;2022-10-18T04:37:20;102450.53;;;13.56;100.00
59729;BME280;45588;51.598;5.618;2022-10-18T04:39:45;102455.81;;;13.58;100.00
59729;BME280;45588;51.598;5.618;2022-10-18T04:42:12;102460.22;;;13.59;100.00
59729;BME280;45588;51.598;5.618;2022-10-18T04:44:38;102451.53;;;13.60;100.00
59729;BME280;45588;51.598;5.618;2022-10-18T04:47:03;102451.41;;;13.57;100.00
59729;BME280;45588;51.598;5.618;2022-10-18T04:49:28;102450.56;;;13.58;100.00
59729;BME280;45588;51.598;5.618;2022-10-18T04:51:54;102452.38;;;13.59;100.00
59729;BME280;45588;51.598;5.618;2022-10-18T04:54:19;102449.75;;;13.59;100.00
59729;BME280;45588;51.598;5.618;2022-10-18T04:56:44;102440.88;;;13.55;100.00
59729;BME280;45588;51.598;5.618;2022-10-18T04:59:09;102438.13;;;13.51;100.00
59729;BME280;45588;51.598;5.618;2022-10-18T05:01:35;102447.06;;;13.57;100.00
59729;BME280;45588;51.598;5.618;2022-10-18T05:04:00;102449.59;;;13.54;100.00
59729;BME280;45588;51.598;5.618;2022-10-18T05:06:25;102447.84;;;13.55;100.00
59729;BME280;45588;51.598;5.618;2022-10-18T05:08:51;102457.44;;;13.54;100.00
59729;BME280;45588;51.598;5.618;2022-10-18T05:11:16;102451.84;;;13.45;100.00
59729;BME280;45588;51.598;5.618;2022-10-18T05:13:41;102455.41;;;13.47;100.00
59729;BME280;45588;51.598;5.618;2022-10-18T05:16:07;102464.00;;;13.43;100.00
59729;BME280;45588;51.598;5.618;2022-10-18T05:18:32;102460.56;;;13.44;100.00
59729;BME280;45588;51.598;5.618;2022-10-18T05:20:57;102465.78;;;13.44;100.00
59729;BME280;45588;51.598;5.618;2022-10-18T05:23:23;102458.44;;;13.34;100.00
59729;BME280;45588;51.598;5.618;2022-10-18T05:25:49;102473.47;;;13.39;100.00
59729;BME280;45588;51.598;5.618;2022-10-18T05:28:14;102474.41;;;13.41;100.00
59729;BME280;45588;51.598;5.618;2022-10-18T05:30:40;102480.31;;;13.36;100.00
59729;BME280;45588;51.598;5.618;2022-10-18T05:33:06;102472.22;;;13.30;100.00
59729;BME280;45588;51.598;5.618;2022-10-18T05:35:32;102470.38;;;13.27;100.00
59729;BME280;45588;51.598;5.618;2022-10-18T05:37:58;102474.72;;;13.27;100.00
59729;BME280;45588;51.598;5.618;2022-10-18T05:40:25;102483.47;;;13.27;100.00
59729;BME280;45588;51.598;5.618;2022-10-18T05:42:51;102485.94;;;13.24;100.00
59729;BME280;45588;51.598;5.618;2022-10-18T05:45:16;102476.34;;;13.25;100.00
59729;BME280;45588;51.598;5.618;2022-10-18T05:47:42;102475.47;;;13.24;100.00
59729;BME280;45588;51.598;5.618;2022-10-18T05:50:07;102472.56;;;13.16;100.00
59729;BME280;45588;51.598;5.618;2022-10-18T05:52:33;102472.63;;;13.18;100.00
59729;BME280;45588;51.598;5.618;2022-10-18T05:54:58;102479.44;;;13.14;100.00
59729;BME280;45588;51.598;5.618;2022-10-18T05:57:23;102478.56;;;13.14;100.00
59729;BME280;45588;51.598;5.618;2022-10-18T05:59:48;102474.22;;;13.14;100.00
59729;BME280;45588;51.598;5.618;2022-10-18T06:02:14;102480.41;;;13.16;100.00
59729;BME280;45588;51.598;5.618;2022-10-18T06:04:39;102495.13;;;13.14;100.00
59729;BME280;45588;51.598;5.618;2022-10-18T06:07:08;102501.16;;;13.12;100.00
59729;BME280;45588;51.598;5.618;2022-10-18T06:09:34;102502.81;;;13.10;100.00
59729;BME280;45588;51.598;5.618;2022-10-18T06:11:59;102500.19;;;13.10;100.00
59729;BME280;45588;51.598;5.618;2022-10-18T06:14:24;102505.41;;;13.10;100.00
59729;BME280;45588;51.598;5.618;2022-10-18T06:16:50;102502.69;;;13.07;100.00
59729;BME280;45588;51.598;5.618;2022-10-18T06:19:15;102498.31;;;13.06;100.00
59729;BME280;45588;51.598;5.618;2022-10-18T06:21:42;102499.13;;;13.05;100.00
59729;BME280;45588;51.598;5.618;2022-10-18T06:24:07;102501.69;;;13.03;100.00
59729;BME280;45588;51.598;5.618;2022-10-18T06:26:32;102503.34;;;13.01;100.00
59729;BME280;45588;51.598;5.618;2022-10-18T06:28:58;102506.91;;;13.03;100.00
59729;BME280;45588;51.598;5.618;2022-10-18T06:31:23;102517.53;;;13.08;100.00
59729;BME280;45588;51.598;5.618;2022-10-18T06:33:48;102513.16;;;13.07;100.00
59729;BME280;45588;51.598;5.618;2022-10-18T06:36:19;102518.19;;;13.02;100.00
59729;BME280;45588;51.598;5.618;2022-10-18T06:38:46;102528.72;;;13.04;100.00
59729;BME280;45588;51.598;5.618;2022-10-18T06:41:12;102519.94;;;13.02;100.00
59729;BME280;45588;51.598;5.618;2022-10-18T06:43:37;102524.28;;;13.01;100.00
59729;BME280;45588;51.598;5.618;2022-10-18T06:46:04;102533.84;;;13.01;100.00
59729;BME280;45588;51.598;5.618;2022-10-18T06:48:32;102531.81;;;12.93;100.00
59729;BME280;45588;51.598;5.618;2022-10-18T06:50:59;102535.00;;;12.86;100.00
59729;BME280;45588;51.598;5.618;2022-10-18T06:53:25;102540.16;;;12.85;100.00
59729;BME280;45588;51.598;5.618;2022-10-18T06:55:51;102547.09;;;12.84;100.00
59729;BME280;45588;51.598;5.618;2022-10-18T06:58:17;102542.91;;;12.88;100.00
59729;BME280;45588;51.598;5.618;2022-10-18T07:00:43;102543.53;;;12.82;100.00
59729;BME280;45588;51.598;5.618;2022-10-18T07:03:10;102550.63;;;12.85;100.00
59729;BME280;45588;51.598;5.618;2022-10-18T07:05:35;102563.84;;;12.88;100.00
59729;BME280;45588;51.598;5.618;2022-10-18T07:08:00;102567.38;;;12.90;100.00
59729;BME280;45588;51.598;5.618;2022-10-18T07:10:26;102561.25;;;12.89;100.00
59729;BME280;45588;51.598;5.618;2022-10-18T07:12:51;102553.41;;;12.89;100.00
59729;BME280;45588;51.598;5.618;2022-10-18T07:15:16;102565.03;;;12.96;100.00
59729;BME280;45588;51.598;5.618;2022-10-18T07:17:43;102569.31;;;12.94;100.00
59729;BME280;45588;51.598;5.618;2022-10-18T07:20:10;102583.47;;;12.99;100.00
59729;BME280;45588;51.598;5.618;2022-10-18T07:22:36;102582.63;;;13.00;100.00
59729;BME280;45588;51.598;5.618;2022-10-18T07:25:03;102588.88;;;13.04;100.00
59729;BME280;45588;51.598;5.618;2022-10-18T07:27:29;102595.19;;;13.09;100.00
59729;BME280;45588;51.598;5.618;2022-10-18T07:29:54;102575.94;;;13.07;100.00
59729;BME280;45588;51.598;5.618;2022-10-18T07:32:19;102583.69;;;13.05;100.00
59729;BME280;45588;51.598;5.618;2022-10-18T07:34:45;102593.72;;;12.94;100.00
59729;BME280;45588;51.598;5.618;2022-10-18T07:37:10;102600.81;;;12.97;100.00
59729;BME280;45588;51.598;5.618;2022-10-18T07:39:35;102602.28;;;12.90;100.00
59729;BME280;45588;51.598;5.618;2022-10-18T07:42:01;102604.59;;;12.83;100.00
59729;BME280;45588;51.598;5.618;2022-10-18T07:44:26;102616.13;;;12.88;100.00
59729;BME280;45588;51.598;5.618;2022-10-18T07:46:51;102613.97;;;12.77;100.00
59729;BME280;45588;51.598;5.618;2022-10-18T07:49:17;102619.34;;;12.82;100.00
59729;BME280;45588;51.598;5.618;2022-10-18T07:51:42;102625.06;;;12.93;100.00
59729;BME280;45588;51.598;5.618;2022-10-18T07:54:07;102630.09;;;12.88;100.00
59729;BME280;45588;51.598;5.618;2022-10-18T07:56:32;102635.13;;;13.05;100.00
59729;BME280;45588;51.598;5.618;2022-10-18T07:58:58;102630.00;;;13.08;100.00
59729;BME280;45588;51.598;5.618;2022-10-18T08:01:24;102637.03;;;13.09;100.00
59729;BME280;45588;51.598;5.618;2022-10-18T08:03:50;102647.59;;;13.10;100.00
59729;BME280;45588;51.598;5.618;2022-10-18T08:06:17;102636.94;;;13.06;100.00
59729;BME280;45588;51.598;5.618;2022-10-18T08:08:43;102651.34;;;13.17;100.00
59729;BME280;45588;51.598;5.618;2022-10-18T08:11:19;102655.00;;;13.20;100.00
59729;BME280;45588;51.598;5.618;2022-10-18T08:13:45;102661.03;;;13.19;100.00
59729;BME280;45588;51.598;5.618;2022-10-18T08:16:20;102663.00;;;13.25;100.00
59729;BME280;45588;51.598;5.618;2022-10-18T08:18:46;102672.53;;;13.23;100.00
59729;BME280;45588;51.598;5.618;2022-10-18T08:21:12;102663.50;;;13.36;100.00
59729;BME280;45588;51.598;5.618;2022-10-18T08:23:38;102663.34;;;13.33;100.00
59729;BME280;45588;51.598;5.618;2022-10-18T08:26:06;102671.38;;;13.37;100.00
59729;BME280;45588;51.598;5.618;2022-10-18T08:28:32;102670.00;;;13.46;100.00
59729;BME280;45588;51.598;5.618;2022-10-18T08:31:04;102661.72;;;13.57;100.00
59729;BME280;45588;51.598;5.618;2022-10-18T08:33:30;102657.91;;;13.49;100.00
59729;BME280;45588;51.598;5.618;2022-10-18T08:35:57;102666.84;;;13.54;100.00
59729;BME280;45588;51.598;5.618;2022-10-18T08:38:23;102674.59;;;13.74;100.00
59729;BME280;45588;51.598;5.618;2022-10-18T08:40:49;102675.56;;;13.76;100.00
59729;BME280;45588;51.598;5.618;2022-10-18T08:43:37;102675.31;;;13.92;100.00
59729;BME280;45588;51.598;5.618;2022-10-18T08:46:09;102685.31;;;14.02;100.00
59729;BME280;45588;51.598;5.618;2022-10-18T08:48:42;102681.72;;;14.00;100.00
59729;BME280;45588;51.598;5.618;2022-10-18T08:51:37;102683.88;;;14.11;100.00
59729;BME280;45588;51.598;5.618;2022-10-18T08:54:11;102690.31;;;14.19;100.00
59729;BME280;45588;51.598;5.618;2022-10-18T08:56:39;102681.03;;;14.28;100.00
59729;BME280;45588;51.598;5.618;2022-10-18T08:59:10;102685.66;;;14.34;100.00
59729;BME280;45588;51.598;5.618;2022-10-18T09:04:27;102687.91;;;14.25;100.00
59729;BME280;45588;51.598;5.618;2022-10-18T09:10:03;102695.84;;;14.26;100.00
59729;BME280;45588;51.598;5.618;2022-10-18T09:15:48;102697.63;;;14.27;100.00
59729;BME280;45588;51.598;5.618;2022-10-18T09:20:53;102696.28;;;14.39;100.00
59729;BME280;45588;51.598;5.618;2022-10-18T09:23:42;102687.63;;;14.64;100.00
59729;BME280;45588;51.598;5.618;2022-10-18T09:26:16;102697.03;;;14.59;100.00
59729;BME280;45588;51.598;5.618;2022-10-18T09:28:53;102702.53;;;14.65;100.00
59729;BME280;45588;51.598;5.618;2022-10-18T09:34:49;102693.19;;;14.73;100.00
59729;BME280;45588;51.598;5.618;2022-10-18T09:37:18;102698.69;;;14.55;100.00
59729;BME280;45588;51.598;5.618;2022-10-18T09:39:44;102701.47;;;14.60;100.00
59729;BME280;45588;51.598;5.618;2022-10-18T09:42:20;102703.34;;;14.64;100.00
59729;BME280;45588;51.598;5.618;2022-10-18T09:44:54;102693.28;;;14.76;100.00
59729;BME280;45588;51.598;5.618;2022-10-18T09:47:25;102695.03;;;15.00;100.00
59729;BME280;45588;51.598;5.618;2022-10-18T09:50:02;102707.13;;;14.96;100.00
59729;BME280;45588;51.598;5.618;2022-10-18T09:52:37;102703.94;;;15.05;100.00
59729;BME280;45588;51.598;5.618;2022-10-18T09:55:12;102695.84;;;14.99;100.00
59729;BME280;45588;51.598;5.618;2022-10-18T09:57:42;102685.56;;;15.05;100.00
59729;BME280;45588;51.598;5.618;2022-10-18T10:00:17;102699.31;;;15.23;100.00
59729;BME280;45588;51.598;5.618;2022-10-18T10:02:42;102700.78;;;15.15;100.00
59729;BME280;45588;51.598;5.618;2022-10-18T10:05:14;102696.78;;;15.26;100.00
59729;BME280;45588;51.598;5.618;2022-10-18T10:07:42;102705.94;;;15.39;100.00
59729;BME280;45588;51.598;5.618;2022-10-18T10:10:19;102700.28;;;15.52;100.00
59729;BME280;45588;51.598;5.618;2022-10-18T10:12:46;102699.66;;;15.34;100.00
59729;BME280;45588;51.598;5.618;2022-10-18T10:15:22;102695.16;;;15.57;100.00
59729;BME280;45588;51.598;5.618;2022-10-18T10:18:18;102699.22;;;15.73;100.00
59729;BME280;45588;51.598;5.618;2022-10-18T10:20:51;102707.63;;;15.64;100.00
59729;BME280;45588;51.598;5.618;2022-10-18T10:23:36;102703.69;;;15.75;100.00
59729;BME280;45588;51.598;5.618;2022-10-18T10:26:06;102709.88;;;15.77;100.00
59729;BME280;45588;51.598;5.618;2022-10-18T10:28:40;102709.06;;;15.80;100.00
59729;BME280;45588;51.598;5.618;2022-10-18T10:33:44;102704.31;;;15.97;100.00
59729;BME280;45588;51.598;5.618;2022-10-18T10:36:19;102717.47;;;15.97;100.00
59729;BME280;45588;51.598;5.618;2022-10-18T10:38:45;102711.97;;;15.89;100.00
59729;BME280;45588;51.598;5.618;2022-10-18T10:41:19;102725.94;;;16.15;100.00
59729;BME280;45588;51.598;5.618;2022-10-18T10:43:45;102728.97;;;16.00;100.00
59729;BME280;45588;51.598;5.618;2022-10-18T10:46:15;102729.00;;;16.02;100.00
59729;BME280;45588;51.598;5.618;2022-10-18T10:48:57;102731.22;;;16.17;100.00
59729;BME280;45588;51.598;5.618;2022-10-18T10:54:11;102742.97;;;16.28;100.00
59729;BME280;45588;51.598;5.618;2022-10-18T10:59:27;102739.31;;;16.23;100.00
59729;BME280;45588;51.598;5.618;2022-10-18T11:04:38;102740.81;;;16.45;100.00
59729;BME280;45588;51.598;5.618;2022-10-18T11:12:55;102739.13;;;16.47;100.00
59729;BME280;45588;51.598;5.618;2022-10-18T11:15:39;102749.88;;;16.55;100.00
59729;BME280;45588;51.598;5.618;2022-10-18T11:18:24;102749.78;;;16.52;100.00
59729;BME280;45588;51.598;5.618;2022-10-18T11:23:37;102734.88;;;16.52;100.00
59729;BME280;45588;51.598;5.618;2022-10-18T11:39:53;102743.22;;;16.67;100.00
59729;BME280;45588;51.598;5.618;2022-10-18T11:42:02;102743.84;;;16.59;100.00
59729;BME280;45588;51.598;5.618;2022-10-18T11:44:37;102739.41;;;16.56;100.00
59729;BME280;45588;51.598;5.618;2022-10-18T11:47:12;102748.75;;;16.47;99.83
59729;BME280;45588;51.598;5.618;2022-10-18T11:50:11;102737.50;;;16.52;100.00
59729;BME280;45588;51.598;5.618;2022-10-18T11:53:12;102740.13;;;16.51;100.00
59729;BME280;45588;51.598;5.618;2022-10-18T12:04:42;102719.88;;;16.78;100.00
59729;BME280;45588;51.598;5.618;2022-10-18T12:07:11;102726.69;;;16.72;100.00
59729;BME280;45588;51.598;5.618;2022-10-18T12:09:44;102729.56;;;16.79;100.00
59729;BME280;45588;51.598;5.618;2022-10-18T12:12:18;102728.88;;;16.86;100.00
59729;BME280;45588;51.598;5.618;2022-10-18T12:14:50;102725.16;;;16.78;100.00
59729;BME280;45588;51.598;5.618;2022-10-18T12:18:01;102713.22;;;16.91;100.00
59729;BME280;45588;51.598;5.618;2022-10-18T12:20:26;102719.19;;;16.85;100.00
59729;BME280;45588;51.598;5.618;2022-10-18T12:23:19;102708.44;;;16.78;100.00
59729;BME280;45588;51.598;5.618;2022-10-18T12:25:50;102711.19;;;16.81;100.00
59729;BME280;45588;51.598;5.618;2022-10-18T12:30:56;102717.34;;;16.81;100.00
59729;BME280;45588;51.598;5.618;2022-10-18T12:33:28;102706.81;;;16.81;100.00
59729;BME280;45588;51.598;5.618;2022-10-18T12:38:35;102714.72;;;16.83;100.00
59729;BME280;45588;51.598;5.618;2022-10-18T12:41:04;102697.28;;;16.86;100.00
59729;BME280;45588;51.598;5.618;2022-10-18T12:43:32;102699.88;;;16.85;100.00
59729;BME280;45588;51.598;5.618;2022-10-18T12:46:03;102701.56;;;16.83;100.00
59729;BME280;45588;51.598;5.618;2022-10-18T12:48:34;102705.75;;;16.76;97.23
59729;BME280;45588;51.598;5.618;2022-10-18T12:51:12;102701.56;;;16.83;99.15
59729;BME280;45588;51.598;5.618;2022-10-18T12:53:40;102703.19;;;16.78;93.83
59729;BME280;45588;51.598;5.618;2022-10-18T12:59:38;102700.75;;;16.85;98.02
59729;BME280;45588;51.598;5.618;2022-10-18T13:13:21;102701.31;;;16.75;98.88
59729;BME280;45588;51.598;5.618;2022-10-18T13:15:46;102696.78;;;16.70;99.25
59729;BME280;45588;51.598;5.618;2022-10-18T13:18:22;102698.50;;;16.67;99.51
59729;BME280;45588;51.598;5.618;2022-10-18T13:21:31;102690.72;;;16.71;100.00
59729;BME280;45588;51.598;5.618;2022-10-18T13:31:48;102690.72;;;16.72;100.00
59729;BME280;45588;51.598;5.618;2022-10-18T13:34:34;102686.31;;;16.71;100.00
59729;BME280;45588;51.598;5.618;2022-10-18T13:37:05;102687.00;;;16.64;100.00
59729;BME280;45588;51.598;5.618;2022-10-18T13:39:42;102691.47;;;16.66;100.00
59729;BME280;45588;51.598;5.618;2022-10-18T13:44:39;102693.34;;;16.71;97.38
59729;BME280;45588;51.598;5.618;2022-10-18T13:49:42;102693.16;;;16.64;100.00
59729;BME280;45588;51.598;5.618;2022-10-18T13:52:30;102684.31;;;16.62;100.00
59729;BME280;45588;51.598;5.618;2022-10-18T13:55:32;102694.09;;;16.66;100.00
59729;BME280;45588;51.598;5.618;2022-10-18T13:58:36;102693.09;;;16.63;100.00
59729;BME280;45588;51.598;5.618;2022-10-18T14:01:14;102697.44;;;16.61;100.00
59729;BME280;45588;51.598;5.618;2022-10-18T14:06:26;102695.72;;;16.63;100.00
59729;BME280;45588;51.598;5.618;2022-10-18T14:08:59;102689.44;;;16.58;100.00
59729;BME280;45588;51.598;5.618;2022-10-18T14:11:33;102693.88;;;16.59;100.00
59729;BME280;45588;51.598;5.618;2022-10-18T14:14:15;102690.16;;;16.52;100.00
59729;BME280;45588;51.598;5.618;2022-10-18T14:16:54;102695.28;;;16.46;100.00
59729;BME280;45588;51.598;5.618;2022-10-18T14:24:31;102702.38;;;16.50;94.20
59729;BME280;45588;51.598;5.618;2022-10-18T14:27:16;102699.72;;;16.49;92.26
59729;BME280;45588;51.598;5.618;2022-10-18T14:29:42;102704.00;;;16.45;91.09
59729;BME280;45588;51.598;5.618;2022-10-18T14:32:10;102706.63;;;16.45;91.41
59729;BME280;45588;51.598;5.618;2022-10-18T14:34:43;102701.13;;;16.36;91.80
59729;BME280;45588;51.598;5.618;2022-10-18T14:37:20;102694.13;;;16.36;89.05
59729;BME280;45588;51.598;5.618;2022-10-18T14:39:47;102701.91;;;16.33;84.35
59729;BME280;45588;51.598;5.618;2022-10-18T14:42:19;102706.16;;;16.28;85.07
59729;BME280;45588;51.598;5.618;2022-10-18T14:44:47;102698.28;;;16.30;84.27
59729;BME280;45588;51.598;5.618;2022-10-18T14:47:16;102706.19;;;16.30;88.21
59729;BME280;45588;51.598;5.618;2022-10-18T14:49:44;102693.97;;;16.32;90.10
59729;BME280;45588;51.598;5.618;2022-10-18T14:52:14;102688.34;;;16.19;95.04